Time;durP1;ratioP1;P1;durP2;ratioP2;P2;SDS_P1;SDS_P2;PMS_P1;PMS_P2;Temp;Humidity;BMP_temperature;BMP_pressure;BME280_temperature;BME280_humidity;BME280_pressure;Samples;Min_cycle;Max_cycle;Signal;HPM_P1;HPM_P2
2023/02/25 00:01:32;;;;;;;;;;;18.00;64.90;;;;;;5038890;28;1261;-72
2023/02/25 00:03:57;;;;;;;;;;;18.10;65.00;;;;;;5037936;28;1926;-73
2023/02/25 00:06:23;;;;;;;;;;;18.10;65.00;;;;;;5038401;28;935;-73
2023/02/25 00:08:49;;;;;;;;;;;18.00;64.90;;;;;;5038914;28;1082;-73
2023/02/25 00:11:15;;;;;;;;;;;18.00;65.00;;;;;;5043801;28;1341;-72
2023/02/25 00:13:40;;;;;;;;;;;18.00;65.00;;;;;;5042784;28;909;-73
2023/02/25 00:16:06;;;;;;;;;;;18.00;65.00;;;;;;5040938;28;957;-72
2023/02/25 00:18:32;;;;;;;;;;;18.00;65.00;;;;;;5045029;28;899;-73
2023/02/25 00:20:57;;;;;;;;;;;18.00;65.00;;;;;;5039922;28;1296;-72
2023/02/25 00:23:23;;;;;;;;;;;18.00;65.00;;;;;;5070529;28;2032;-72
2023/02/25 00:25:48;;;;;;;;;;;18.10;65.80;;;;;;5038131;28;1461;-72
2023/02/25 00:28:14;;;;;;;;;;;18.00;65.00;;;;;;5039762;28;939;-72
2023/02/25 00:30:39;;;;;;;;;;;18.00;65.00;;;;;;5041132;28;1294;-72
2023/02/25 00:33:09;;;;;;;;;;;18.00;65.00;;;;;;5047443;28;940;-72
2023/02/25 00:35:39;;;;;;;;;;;18.00;65.10;;;;;;5038577;28;942;-72
2023/02/25 00:38:06;;;;;;;;;;;18.00;65.10;;;;;;5039612;28;1112;-72
2023/02/25 00:40:31;;;;;;;;;;;18.00;65.10;;;;;;5037148;28;1273;-73
2023/02/25 00:42:57;;;;;;;;;;;18.00;65.10;;;;;;5040339;28;1909;-72
2023/02/25 00:45:22;;;;;;;;;;;18.00;65.10;;;;;;5039276;28;903;-72
2023/02/25 00:47:48;;;;;;;;;;;18.00;65.10;;;;;;5038699;28;817;-73
2023/02/25 00:50:13;;;;;;;;;;;18.00;65.10;;;;;;5036943;28;880;-72
2023/02/25 00:52:39;;;;;;;;;;;18.00;65.10;;;;;;5043661;28;1185;-72
2023/02/25 00:55:05;;;;;;;;;;;18.00;65.20;;;;;;5035724;28;818;-72
2023/02/25 00:57:31;;;;;;;;;;;18.00;65.20;;;;;;5037199;28;900;-72
2023/02/25 00:59:56;;;;;;;;;;;18.00;65.20;;;;;;5037074;28;907;-73
2023/02/25 01:02:21;;;;;;;;;;;17.90;65.20;;;;;;5039357;28;1906;-72
2023/02/25 01:04:47;;;;;;;;;;;18.00;65.20;;;;;;5040323;28;785;-72
2023/02/25 01:07:12;;;;;;;;;;;18.00;65.20;;;;;;5041107;28;916;-73
2023/02/25 01:09:38;;;;;;;;;;;18.00;65.20;;;;;;5031853;28;835;-72
2023/02/25 01:12:03;;;;;;;;;;;18.00;65.20;;;;;;5043865;28;1365;-73
2023/02/25 01:14:29;;;;;;;;;;;18.00;65.20;;;;;;5041850;28;872;-73
2023/02/25 01:17:00;;;;;;;;;;;18.00;65.20;;;;;;5042321;28;856;-72
2023/02/25 01:19:26;;;;;;;;;;;17.90;65.20;;;;;;5041161;28;852;-72
2023/02/25 01:21:52;;;;;;;;;;;18.00;65.30;;;;;;5048727;28;1910;-72
2023/02/25 01:24:22;;;;;;;;;;;17.90;65.30;;;;;;5040785;28;1051;-72
2023/02/25 01:26:48;;;;;;;;;;;18.00;65.40;;;;;;5042628;28;808;-71
2023/02/25 01:29:14;;;;;;;;;;;17.90;65.30;;;;;;5051929;28;825;-71
2023/02/25 01:31:40;;;;;;;;;;;17.90;65.30;;;;;;5044678;28;1294;-72
2023/02/25 01:34:06;;;;;;;;;;;17.90;65.30;;;;;;5050351;28;975;-71
2023/02/25 01:36:31;;;;;;;;;;;17.90;65.30;;;;;;5022785;28;1612;-71
2023/02/25 01:38:57;;;;;;;;;;;17.90;65.30;;;;;;5039947;28;1319;-71
2023/02/25 01:41:23;;;;;;;;;;;17.90;65.30;;;;;;5042179;28;1257;-72
2023/02/25 01:44:05;;;;;;;;;;;17.90;65.30;;;;;;5043218;28;1955;-72
2023/02/25 01:46:31;;;;;;;;;;;17.90;65.30;;;;;;5042147;28;875;-72
2023/02/25 01:48:56;;;;;;;;;;;17.90;65.40;;;;;;5043249;28;884;-71
2023/02/25 01:51:24;;;;;;;;;;;17.90;65.40;;;;;;5041042;28;1249;-71
2023/02/25 01:53:50;;;;;;;;;;;17.90;65.40;;;;;;5043173;28;890;-72
2023/02/25 01:56:15;;;;;;;;;;;17.90;65.40;;;;;;5044563;28;947;-72
2023/02/25 01:58:41;;;;;;;;;;;17.90;65.40;;;;;;5041360;28;887;-73
2023/02/25 02:01:07;;;;;;;;;;;17.90;65.40;;;;;;5050774;28;1327;-71
2023/02/25 02:03:33;;;;;;;;;;;17.90;65.40;;;;;;5041959;28;1957;-71
2023/02/25 02:06:00;;;;;;;;;;;17.90;65.40;;;;;;5039126;28;840;-74
2023/02/25 02:08:25;;;;;;;;;;;17.90;65.40;;;;;;5038600;28;824;-73
2023/02/25 02:10:51;;;;;;;;;;;17.90;65.40;;;;;;5024159;28;1352;-73
2023/02/25 02:13:17;;;;;;;;;;;17.90;65.40;;;;;;5031850;28;1092;-73
2023/02/25 02:15:44;;;;;;;;;;;17.90;65.50;;;;;;5038308;28;1027;-73
2023/02/25 02:18:10;;;;;;;;;;;17.90;65.40;;;;;;5041645;28;843;-73
2023/02/25 02:20:56;;;;;;;;;;;17.90;65.50;;;;;;5036172;28;1253;-73
2023/02/25 02:23:44;;;;;;;;;;;17.90;65.50;;;;;;5039883;28;1969;-74
2023/02/25 02:26:28;;;;;;;;;;;17.90;65.50;;;;;;5041053;28;1431;-73
2023/02/25 02:29:17;;;;;;;;;;;17.90;65.50;;;;;;5041219;28;998;-73
2023/02/25 02:32:01;;;;;;;;;;;17.90;65.50;;;;;;5038256;28;1293;-74
2023/02/25 02:34:35;;;;;;;;;;;17.90;65.50;;;;;;5039862;28;923;-73
2023/02/25 02:37:04;;;;;;;;;;;17.90;65.50;;;;;;5047645;28;1465;-73
2023/02/25 02:39:43;;;;;;;;;;;17.90;65.50;;;;;;5057811;28;1274;-73
2023/02/25 02:42:17;;;;;;;;;;;17.80;65.50;;;;;;5040552;28;1992;-73
2023/02/25 02:44:45;;;;;;;;;;;17.80;65.40;;;;;;5038817;28;868;-73
2023/02/25 02:47:11;;;;;;;;;;;17.90;65.60;;;;;;5038170;28;819;-72
2023/02/25 02:49:42;;;;;;;;;;;17.80;65.50;;;;;;5042978;28;874;-73
2023/02/25 02:52:13;;;;;;;;;;;17.90;65.50;;;;;;5037698;28;1330;-73
2023/02/25 02:54:39;;;;;;;;;;;17.80;66.30;;;;;;5039737;28;864;-73
2023/02/25 02:57:05;;;;;;;;;;;17.80;65.50;;;;;;5037727;28;879;-73
2023/02/25 02:59:41;;;;;;;;;;;17.80;65.50;;;;;;5039215;28;891;-73
2023/02/25 03:02:10;;;;;;;;;;;17.80;65.50;;;;;;5025254;28;1886;-72
2023/02/25 03:04:36;;;;;;;;;;;17.80;65.50;;;;;;5040733;28;832;-73
2023/02/25 03:07:03;;;;;;;;;;;17.80;65.50;;;;;;5040079;28;881;-73
2023/02/25 03:09:31;;;;;;;;;;;17.80;65.50;;;;;;5039648;28;1089;-73
2023/02/25 03:11:57;;;;;;;;;;;17.80;65.50;;;;;;5038936;28;1272;-73
2023/02/25 03:14:22;;;;;;;;;;;17.80;65.50;;;;;;5039242;28;830;-74
2023/02/25 03:16:50;;;;;;;;;;;17.80;65.60;;;;;;5038455;28;805;-74
2023/02/25 03:19:22;;;;;;;;;;;17.80;65.50;;;;;;5042214;28;1265;-73
2023/02/25 03:21:49;;;;;;;;;;;17.80;65.60;;;;;;5040723;28;1894;-74
2023/02/25 03:24:21;;;;;;;;;;;17.80;65.60;;;;;;5036323;28;1288;-71
2023/02/25 03:26:47;;;;;;;;;;;17.80;65.60;;;;;;5039392;28;938;-72
2023/02/25 03:29:16;;;;;;;;;;;17.80;65.60;;;;;;5045921;28;895;-73
2023/02/25 03:32:05;;;;;;;;;;;17.80;65.60;;;;;;5040250;28;1296;-72
2023/02/25 03:34:32;;;;;;;;;;;17.80;65.60;;;;;;5035500;28;1024;-72
2023/02/25 03:37:02;;;;;;;;;;;17.80;65.60;;;;;;5045140;28;1478;-73
2023/02/25 03:39:28;;;;;;;;;;;17.80;65.60;;;;;;5035764;28;791;-73
2023/02/25 03:41:54;;;;;;;;;;;17.80;65.60;;;;;;5025091;28;1898;-72
2023/02/25 03:44:22;;;;;;;;;;;17.80;65.60;;;;;;5039735;28;840;-72
2023/02/25 03:46:47;;;;;;;;;;;17.80;65.60;;;;;;5038767;28;827;-72
2023/02/25 03:49:20;;;;;;;;;;;17.80;65.60;;;;;;5038344;28;885;-73
2023/02/25 03:51:46;;;;;;;;;;;17.80;65.60;;;;;;5056771;28;1395;-72
2023/02/25 03:54:12;;;;;;;;;;;17.80;65.60;;;;;;5039748;28;1539;-72
2023/02/25 03:56:45;;;;;;;;;;;17.80;65.70;;;;;;5045525;28;1361;-72
2023/02/25 03:59:11;;;;;;;;;;;17.80;65.70;;;;;;5038903;28;804;-72
2023/02/25 04:01:36;;;;;;;;;;;17.80;65.70;;;;;;5038790;28;1256;-72
2023/02/25 04:04:02;;;;;;;;;;;17.80;65.70;;;;;;5035163;28;1977;-73
2023/02/25 04:06:27;;;;;;;;;;;17.80;65.70;;;;;;5037641;28;1296;-74
2023/02/25 04:08:52;;;;;;;;;;;17.80;65.70;;;;;;5036901;28;1039;-73
2023/02/25 04:11:18;;;;;;;;;;;17.80;65.70;;;;;;5037809;28;1381;-72
2023/02/25 04:13:43;;;;;;;;;;;17.80;65.70;;;;;;5041136;28;879;-73
2023/02/25 04:16:09;;;;;;;;;;;17.80;65.70;;;;;;5041075;28;892;-72
2023/02/25 04:18:34;;;;;;;;;;;17.80;66.50;;;;;;5039413;28;793;-72
2023/02/25 04:21:00;;;;;;;;;;;17.80;65.70;;;;;;5041110;28;1343;-72
2023/02/25 04:23:25;;;;;;;;;;;17.80;65.70;;;;;;5035408;28;1906;-74
2023/02/25 04:25:51;;;;;;;;;;;17.80;65.70;;;;;;5039268;28;1486;-72
2023/02/25 04:28:16;;;;;;;;;;;17.80;65.70;;;;;;5038684;28;800;-73
2023/02/25 04:30:42;;;;;;;;;;;17.80;65.70;;;;;;5038986;28;1296;-74
2023/02/25 04:33:08;;;;;;;;;;;17.70;65.70;;;;;;5039847;28;1066;-73
2023/02/25 04:35:33;;;;;;;;;;;17.80;65.80;;;;;;5035563;28;1255;-74
2023/02/25 04:37:59;;;;;;;;;;;17.70;65.70;;;;;;5039185;28;1458;-72
2023/02/25 04:40:24;;;;;;;;;;;17.70;65.70;;;;;;5041320;28;1241;-73
2023/02/25 04:42:50;;;;;;;;;;;17.70;65.70;;;;;;5042679;28;2007;-74
2023/02/25 04:45:16;;;;;;;;;;;17.70;65.70;;;;;;5050189;28;1144;-73
2023/02/25 04:47:41;;;;;;;;;;;17.70;65.70;;;;;;5042887;28;820;-74
2023/02/25 04:50:07;;;;;;;;;;;17.70;65.70;;;;;;5038511;28;942;-73
2023/02/25 04:52:32;;;;;;;;;;;17.70;65.70;;;;;;5044065;28;1283;-73
2023/02/25 04:54:58;;;;;;;;;;;17.70;65.70;;;;;;5038743;28;872;-73
2023/02/25 04:57:24;;;;;;;;;;;17.70;65.70;;;;;;5040537;28;899;-73
2023/02/25 04:59:50;;;;;;;;;;;17.70;65.70;;;;;;5040576;28;1216;-72
2023/02/25 05:02:15;;;;;;;;;;;17.70;65.70;;;;;;5037383;28;1899;-73
2023/02/25 05:04:41;;;;;;;;;;;17.70;65.80;;;;;;5041763;28;1208;-73
2023/02/25 05:07:06;;;;;;;;;;;17.70;65.70;;;;;;5039954;28;1014;-73
2023/02/25 05:09:32;;;;;;;;;;;17.70;65.70;;;;;;5042229;28;827;-73
2023/02/25 05:11:57;;;;;;;;;;;17.80;65.70;;;;;;5043160;28;1292;-73
2023/02/25 05:14:23;;;;;;;;;;;17.80;65.60;;;;;;5039043;28;1003;-72
2023/02/25 05:16:49;;;;;;;;;;;17.80;65.50;;;;;;5040529;28;1062;-72
2023/02/25 05:19:21;;;;;;;;;;;17.80;65.40;;;;;;5040405;28;924;-72
2023/02/25 05:21:49;;;;;;;;;;;17.90;65.30;;;;;;5041431;28;1284;-72
2023/02/25 05:24:15;;;;;;;;;;;17.90;65.20;;;;;;5043499;28;1918;-72
2023/02/25 05:26:41;;;;;;;;;;;18.00;65.10;;;;;;5044283;28;1006;-72
2023/02/25 05:29:07;;;;;;;;;;;18.00;64.90;;;;;;5047533;28;1621;-72
2023/02/25 05:31:32;;;;;;;;;;;18.00;64.70;;;;;;5037182;28;1271;-73
2023/02/25 05:33:58;;;;;;;;;;;18.10;64.70;;;;;;5046616;28;892;-72
2023/02/25 05:36:23;;;;;;;;;;;18.10;64.50;;;;;;5041311;28;785;-72
2023/02/25 05:38:51;;;;;;;;;;;18.10;64.40;;;;;;5041296;28;1406;-73
2023/02/25 05:41:16;;;;;;;;;;;18.30;64.30;;;;;;5043591;28;1385;-73
2023/02/25 05:43:44;;;;;;;;;;;18.40;64.10;;;;;;5044596;28;1906;-72
2023/02/25 05:46:10;;;;;;;;;;;18.50;63.90;;;;;;5040918;28;758;-73
2023/02/25 05:48:36;;;;;;;;;;;18.70;63.50;;;;;;5042764;28;816;-73
2023/02/25 05:51:02;;;;;;;;;;;18.90;63.00;;;;;;5043623;28;1260;-73
2023/02/25 05:53:28;;;;;;;;;;;19.00;62.60;;;;;;5043865;28;823;-73
2023/02/25 05:55:54;;;;;;;;;;;19.20;62.20;;;;;;5042803;28;912;-73
2023/02/25 05:58:20;;;;;;;;;;;19.30;61.70;;;;;;5040311;28;847;-73
2023/02/25 06:00:45;;;;;;;;;;;19.40;61.30;;;;;;5041825;28;1343;-72
2023/02/25 06:03:11;;;;;;;;;;;19.60;60.90;;;;;;5041147;28;1934;-72
2023/02/25 06:05:40;;;;;;;;;;;19.70;60.50;;;;;;5039933;28;855;-72
2023/02/25 06:08:06;;;;;;;;;;;19.80;60.20;;;;;;5047913;28;891;-73
2023/02/25 06:10:37;;;;;;;;;;;19.90;59.90;;;;;;5049377;28;1626;-73
2023/02/25 06:13:06;;;;;;;;;;;20.10;59.80;;;;;;5041702;28;844;-72
2023/02/25 06:15:31;;;;;;;;;;;20.20;59.50;;;;;;5041443;28;877;-73
2023/02/25 06:17:57;;;;;;;;;;;20.20;59.30;;;;;;5042095;28;826;-73
2023/02/25 06:20:24;;;;;;;;;;;20.30;59.10;;;;;;5042461;28;1240;-73
2023/02/25 06:22:50;;;;;;;;;;;20.30;58.90;;;;;;5038177;28;1910;-73
2023/02/25 06:25:15;;;;;;;;;;;20.40;58.80;;;;;;5040209;28;1280;-72
2023/02/25 06:27:41;;;;;;;;;;;20.50;58.70;;;;;;5041091;28;936;-73
2023/02/25 06:30:06;;;;;;;;;;;20.50;58.50;;;;;;5041903;28;796;-74
2023/02/25 06:32:32;;;;;;;;;;;20.60;58.50;;;;;;5040312;28;1710;-73
2023/02/25 06:34:57;;;;;;;;;;;20.60;58.40;;;;;;5038327;28;1030;-75
2023/02/25 06:37:23;;;;;;;;;;;20.60;58.30;;;;;;5041431;28;1371;-74
2023/02/25 06:39:48;;;;;;;;;;;20.60;58.20;;;;;;5039461;28;888;-75
2023/02/25 06:42:14;;;;;;;;;;;20.70;58.20;;;;;;5043741;28;1902;-73
2023/02/25 06:44:39;;;;;;;;;;;20.70;58.10;;;;;;5035898;28;1870;-69
2023/02/25 06:47:05;;;;;;;;;;;20.70;58.10;;;;;;5038731;28;1857;-74
2023/02/25 06:49:30;;;;;;;;;;;20.70;58.10;;;;;;5039972;28;1330;-73
2023/02/25 06:51:56;;;;;;;;;;;20.70;58.10;;;;;;5040703;28;1529;-73
2023/02/25 06:54:21;;;;;;;;;;;20.70;58.10;;;;;;5042407;28;853;-70
2023/02/25 06:56:47;;;;;;;;;;;20.70;58.20;;;;;;5038401;28;828;-71
2023/02/25 06:59:12;;;;;;;;;;;20.70;58.20;;;;;;5037632;28;836;-71
2023/02/25 07:01:38;;;;;;;;;;;20.60;58.20;;;;;;5028555;28;4388;-73
2023/02/25 07:04:03;;;;;;;;;;;20.60;58.30;;;;;;5043254;28;1971;-71
2023/02/25 07:06:29;;;;;;;;;;;20.60;58.30;;;;;;5043472;28;1306;-70
2023/02/25 07:08:55;;;;;;;;;;;20.60;58.50;;;;;;5041239;28;981;-74
2023/02/25 07:11:24;;;;;;;;;;;20.60;58.60;;;;;;5041042;28;1280;-74
2023/02/25 07:13:49;;;;;;;;;;;20.60;58.70;;;;;;5045066;28;4885;-74
2023/02/25 07:16:15;;;;;;;;;;;20.60;58.80;;;;;;5041295;28;1082;-71
2023/02/25 07:18:41;;;;;;;;;;;20.50;58.80;;;;;;5073117;28;878;-70
2023/02/25 07:21:06;;;;;;;;;;;20.50;58.90;;;;;;5036596;28;1269;-71
2023/02/25 07:23:32;;;;;;;;;;;20.50;59.10;;;;;;5039799;28;1882;-72
2023/02/25 07:26:01;;;;;;;;;;;20.50;59.10;;;;;;5069476;28;1317;-72
2023/02/25 07:28:26;;;;;;;;;;;20.40;59.10;;;;;;5040704;28;831;-73
2023/02/25 07:30:52;;;;;;;;;;;20.40;59.20;;;;;;5041549;28;1243;-73
2023/02/25 07:33:17;;;;;;;;;;;20.40;59.20;;;;;;5035744;28;872;-72
2023/02/25 07:35:43;;;;;;;;;;;20.30;59.20;;;;;;5071275;28;891;-71
2023/02/25 07:38:11;;;;;;;;;;;20.30;59.20;;;;;;5038771;28;1052;-71
2023/02/25 07:40:38;;;;;;;;;;;20.30;59.30;;;;;;5042919;28;1271;-73
2023/02/25 07:43:03;;;;;;;;;;;20.30;59.40;;;;;;5070567;28;1898;-73
2023/02/25 07:45:29;;;;;;;;;;;20.20;59.40;;;;;;5037758;28;1323;-72
2023/02/25 07:47:54;;;;;;;;;;;20.20;59.50;;;;;;5039096;28;1336;-73
2023/02/25 07:50:20;;;;;;;;;;;20.30;60.20;;;;;;5072421;28;922;-74
2023/02/25 07:52:45;;;;;;;;;;;20.20;59.60;;;;;;5038597;28;1217;-73
2023/02/25 07:55:11;;;;;;;;;;;20.20;59.60;;;;;;5039070;28;849;-74
2023/02/25 07:57:36;;;;;;;;;;;20.20;59.70;;;;;;5076344;28;951;-71
2023/02/25 08:00:03;;;;;;;;;;;20.20;59.70;;;;;;5040484;28;820;-70
2023/02/25 08:02:28;;;;;;;;;;;20.20;59.70;;;;;;5036283;28;1966;-71
2023/02/25 08:04:54;;;;;;;;;;;20.20;59.60;;;;;;5039816;28;2005;-71
2023/02/25 08:07:19;;;;;;;;;;;20.20;59.90;;;;;;5041838;28;1336;-69
2023/02/25 08:09:45;;;;;;;;;;;20.20;60.20;;;;;;5042833;28;1155;-70
2023/02/25 08:12:10;;;;;;;;;;;20.20;60.40;;;;;;5040938;28;1398;-71
2023/02/25 08:14:36;;;;;;;;;;;20.20;60.70;;;;;;5039465;28;1251;-70
2023/02/25 08:17:01;;;;;;;;;;;20.20;60.90;;;;;;5070848;28;1349;-71
2023/02/25 08:19:27;;;;;;;;;;;20.20;60.70;;;;;;5038876;28;1415;-71
2023/02/25 08:21:53;;;;;;;;;;;20.20;60.80;;;;;;5037103;28;1387;-71
2023/02/25 08:24:19;;;;;;;;;;;20.20;61.00;;;;;;5037977;28;1985;-70
2023/02/25 08:26:45;;;;;;;;;;;20.20;61.10;;;;;;5070218;28;1592;-70
2023/02/25 08:29:10;;;;;;;;;;;20.20;61.10;;;;;;5037785;28;895;-71
2023/02/25 08:31:36;;;;;;;;;;;20.20;61.20;;;;;;5037663;28;1340;-69
2023/02/25 08:34:01;;;;;;;;;;;20.20;61.30;;;;;;5038645;28;1019;-71
2023/02/25 08:36:27;;;;;;;;;;;20.20;61.50;;;;;;5037418;28;812;-70
2023/02/25 08:38:53;;;;;;;;;;;20.10;61.70;;;;;;5069820;28;1008;-70
2023/02/25 08:41:19;;;;;;;;;;;20.10;61.90;;;;;;5070525;28;1325;-70
2023/02/25 08:43:47;;;;;;;;;;;20.10;62.10;;;;;;5071332;28;1981;-69
2023/02/25 08:46:12;;;;;;;;;;;20.10;62.40;;;;;;5066939;28;946;-70
2023/02/25 08:48:38;;;;;;;;;;;20.10;62.70;;;;;;5065623;28;890;-71
2023/02/25 08:51:09;;;;;;;;;;;20.10;63.70;;;;;;5037604;28;1332;-70
2023/02/25 08:53:35;;;;;;;;;;;20.10;63.40;;;;;;5069615;28;1397;-70
2023/02/25 08:56:02;;;;;;;;;;;20.10;63.70;;;;;;5037914;28;867;-70
2023/02/25 08:58:28;;;;;;;;;;;20.00;63.80;;;;;;5074809;28;847;-70
2023/02/25 09:00:54;;;;;;;;;;;20.00;64.30;;;;;;5038202;28;1374;-70
2023/02/25 09:03:19;;;;;;;;;;;20.00;66.40;;;;;;5069268;28;1969;-70
2023/02/25 09:05:49;;;;;;;;;;;20.00;66.70;;;;;;5038901;28;943;-71
2023/02/25 09:08:14;;;;;;;;;;;20.00;67.30;;;;;;5038943;28;872;-70
2023/02/25 09:10:40;;;;;;;;;;;20.00;66.40;;;;;;5035831;28;1372;-70
2023/02/25 09:13:05;;;;;;;;;;;20.00;66.30;;;;;;5037591;28;1709;-70
2023/02/25 09:15:31;;;;;;;;;;;20.10;66.20;;;;;;5037995;28;825;-70
2023/02/25 09:17:56;;;;;;;;;;;20.10;66.00;;;;;;5036620;28;842;-70
2023/02/25 09:20:24;;;;;;;;;;;20.00;65.90;;;;;;5040607;28;792;-69
2023/02/25 09:22:50;;;;;;;;;;;20.00;65.80;;;;;;5035522;28;1902;-69
2023/02/25 09:25:15;;;;;;;;;;;20.00;65.70;;;;;;5040185;28;1023;-68
2023/02/25 09:27:41;;;;;;;;;;;20.00;65.70;;;;;;5070388;28;925;-68
2023/02/25 09:30:07;;;;;;;;;;;20.00;65.60;;;;;;5041257;28;825;-69
2023/02/25 09:32:32;;;;;;;;;;;20.00;65.60;;;;;;5044397;28;1434;-69
2023/02/25 09:34:59;;;;;;;;;;;20.00;65.60;;;;;;5041308;28;954;-69
2023/02/25 09:37:25;;;;;;;;;;;20.00;65.40;;;;;;5042851;28;946;-68
2023/02/25 09:39:50;;;;;;;;;;;20.00;65.30;;;;;;5041052;28;971;-71
2023/02/25 09:42:17;;;;;;;;;;;20.00;65.20;;;;;;5041897;28;1914;-68
2023/02/25 09:44:44;;;;;;;;;;;20.00;65.10;;;;;;5069991;28;795;-69
2023/02/25 09:47:30;;;;;;;;;;;20.00;65.00;;;;;;5069998;28;886;-69
2023/02/25 09:50:02;;;;;;;;;;;20.00;65.00;;;;;;5040037;28;879;-69
2023/02/25 09:52:30;;;;;;;;;;;20.00;65.00;;;;;;5073328;28;1270;-69
2023/02/25 09:54:56;;;;;;;;;;;20.00;64.80;;;;;;5073693;28;852;-69
2023/02/25 09:57:22;;;;;;;;;;;20.00;64.90;;;;;;5043295;28;1015;-70
2023/02/25 09:59:48;;;;;;;;;;;20.00;64.80;;;;;;5073350;28;827;-70
2023/02/25 10:02:21;;;;;;;;;;;20.10;65.00;;;;;;5040391;28;1949;-70
2023/02/25 10:05:07;;;;;;;;;;;20.00;65.50;;;;;;5072950;28;864;-69
2023/02/25 10:07:39;;;;;;;;;;;20.00;65.50;;;;;;5034979;28;1229;-69
2023/02/25 10:10:07;;;;;;;;;;;20.00;65.50;;;;;;5073526;28;824;-69
2023/02/25 10:12:40;;;;;;;;;;;20.00;65.60;;;;;;5039114;28;1367;-69
2023/02/25 10:15:15;;;;;;;;;;;20.00;65.60;;;;;;5073941;28;962;-69
2023/02/25 10:17:45;;;;;;;;;;;20.00;65.70;;;;;;5040489;28;836;-70
2023/02/25 10:20:17;;;;;;;;;;;20.00;65.70;;;;;;5070752;28;835;-69
2023/02/25 10:23:01;;;;;;;;;;;20.00;65.80;;;;;;5073717;28;1914;-69
2023/02/25 10:25:29;;;;;;;;;;;19.90;65.70;;;;;;5041708;28;902;-68
2023/02/25 10:27:54;;;;;;;;;;;20.00;65.90;;;;;;5069521;28;891;-70
2023/02/25 10:30:19;;;;;;;;;;;20.00;65.70;;;;;;5038610;28;1014;-68
2023/02/25 10:32:45;;;;;;;;;;;20.00;65.70;;;;;;5041159;28;1325;-68
2023/02/25 10:35:31;;;;;;;;;;;20.00;65.60;;;;;;5071582;28;804;-69
2023/02/25 10:37:56;;;;;;;;;;;20.00;65.60;;;;;;5040181;28;1411;-69
2023/02/25 10:40:23;;;;;;;;;;;20.00;65.60;;;;;;5038706;28;942;-69
2023/02/25 10:42:55;;;;;;;;;;;20.00;65.50;;;;;;5070753;28;1906;-69
2023/02/25 10:45:24;;;;;;;;;;;20.00;65.50;;;;;;5069903;28;903;-69
2023/02/25 10:48:10;;;;;;;;;;;20.00;65.50;;;;;;5038867;28;800;-69
2023/02/25 10:50:35;;;;;;;;;;;20.00;65.50;;;;;;5040726;28;1334;-69
2023/02/25 10:53:02;;;;;;;;;;;20.00;65.50;;;;;;5038708;28;809;-70
2023/02/25 10:55:31;;;;;;;;;;;20.00;65.60;;;;;;5072395;28;938;-69
2023/02/25 10:57:57;;;;;;;;;;;20.00;65.60;;;;;;5037831;28;916;-69
2023/02/25 11:00:29;;;;;;;;;;;20.00;65.60;;;;;;5071834;28;844;-69
2023/02/25 11:02:56;;;;;;;;;;;19.90;65.60;;;;;;5041227;28;1913;-69
2023/02/25 11:05:37;;;;;;;;;;;19.90;65.60;;;;;;5070765;28;1024;-69
2023/02/25 11:08:06;;;;;;;;;;;19.90;65.60;;;;;;5037687;28;869;-69
2023/02/25 11:10:32;;;;;;;;;;;19.90;65.60;;;;;;5068548;28;1277;-70
2023/02/25 11:12:57;;;;;;;;;;;19.90;65.60;;;;;;5039246;28;1084;-69
2023/02/25 11:15:33;;;;;;;;;;;19.90;65.60;;;;;;5067732;28;907;-69
2023/02/25 11:18:07;;;;;;;;;;;19.90;65.60;;;;;;5070107;28;952;-68
2023/02/25 11:20:32;;;;;;;;;;;19.90;65.40;;;;;;5071273;28;1371;-68
2023/02/25 11:22:57;;;;;;;;;;;20.00;65.30;;;;;;5035305;28;1975;-69
2023/02/25 11:25:29;;;;;;;;;;;20.00;65.20;;;;;;5071892;28;1402;-68
2023/02/25 11:27:57;;;;;;;;;;;20.00;65.10;;;;;;5069340;28;935;-70
2023/02/25 11:30:36;;;;;;;;;;;20.00;65.80;;;;;;5070813;28;774;-70
2023/02/25 11:33:03;;;;;;;;;;;20.00;65.00;;;;;;5069113;28;840;-69
2023/02/25 11:35:37;;;;;;;;;;;20.00;64.90;;;;;;5038783;28;923;-69
2023/02/25 11:38:23;;;;;;;;;;;20.00;64.90;;;;;;5069868;28;1408;-70
2023/02/25 11:40:48;;;;;;;;;;;20.00;65.00;;;;;;5071957;28;1318;-70
2023/02/25 11:43:16;;;;;;;;;;;20.00;64.90;;;;;;5037822;28;1902;-69
2023/02/25 11:45:48;;;;;;;;;;;20.00;64.90;;;;;;5036768;28;2099;-69
2023/02/25 11:48:32;;;;;;;;;;;20.00;64.90;;;;;;5041438;28;2005;-70
2023/02/25 11:51:08;;;;;;;;;;;20.00;64.90;;;;;;5041506;28;1353;-71
2023/02/25 11:53:47;;;;;;;;;;;20.00;64.90;;;;;;5041148;28;1018;-70
2023/02/25 11:56:28;;;;;;;;;;;20.00;65.00;;;;;;5071796;28;849;-70
2023/02/25 11:59:12;;;;;;;;;;;20.00;65.00;;;;;;5040195;28;1614;-69
2023/02/25 12:01:54;;;;;;;;;;;20.00;65.00;;;;;;5040815;28;2056;-69
2023/02/25 12:04:22;;;;;;;;;;;19.90;65.00;;;;;;5067374;28;1965;-69
2023/02/25 12:07:20;;;;;;;;;;;19.90;65.00;;;;;;5035991;28;1023;-70
2023/02/25 12:10:04;;;;;;;;;;;19.90;65.00;;;;;;5029360;28;1125;-70
2023/02/25 12:12:48;;;;;;;;;;;19.90;65.10;;;;;;5027077;28;4505;-68
2023/02/25 12:15:20;;;;;;;;;;;19.90;65.20;;;;;;5034690;28;4142;-69
2023/02/25 12:17:45;;;;;;;;;;;19.90;65.30;;;;;;5037615;28;946;-68
2023/02/25 12:20:31;;;;;;;;;;;19.90;65.30;;;;;;5039108;28;800;-70
2023/02/25 12:23:03;;;;;;;;;;;19.90;65.40;;;;;;5077966;28;1898;-70
2023/02/25 12:25:32;;;;;;;;;;;19.90;65.70;;;;;;5041981;28;1215;-70
2023/02/25 12:28:01;;;;;;;;;;;19.80;65.80;;;;;;5044548;28;1463;-70
2023/02/25 12:30:45;;;;;;;;;;;19.80;66.10;;;;;;5039359;28;1275;-70
2023/02/25 12:33:16;;;;;;;;;;;19.80;66.40;;;;;;5039267;28;2211;-69
2023/02/25 12:35:47;;;;;;;;;;;19.80;66.60;;;;;;5072527;28;1039;-71
2023/02/25 12:38:14;;;;;;;;;;;19.70;66.60;;;;;;5037905;28;1413;-70
2023/02/25 12:40:59;;;;;;;;;;;19.70;66.70;;;;;;5038413;28;1338;-69
2023/02/25 12:43:29;;;;;;;;;;;19.70;66.80;;;;;;5038739;28;1898;-69
2023/02/25 12:45:55;;;;;;;;;;;19.70;66.80;;;;;;5069488;28;927;-70
2023/02/25 12:48:26;;;;;;;;;;;19.60;66.80;;;;;;5045236;28;1367;-69
2023/02/25 12:50:56;;;;;;;;;;;19.60;66.90;;;;;;5037462;28;1237;-70
2023/02/25 12:53:28;;;;;;;;;;;19.60;66.90;;;;;;5068793;28;875;-69
2023/02/25 12:56:14;;;;;;;;;;;19.60;67.00;;;;;;5040320;28;853;-69
2023/02/25 12:58:58;;;;;;;;;;;19.60;67.00;;;;;;5037995;28;926;-70
2023/02/25 13:01:29;;;;;;;;;;;19.60;67.00;;;;;;5045043;28;1367;-70
2023/02/25 13:04:00;;;;;;;;;;;19.60;67.10;;;;;;5046816;28;1902;-69
2023/02/25 13:06:38;;;;;;;;;;;19.60;64.40;;;;;;5044793;28;791;-69
2023/02/25 13:09:16;;;;;;;;;;;19.50;57.70;;;;;;5075993;28;1409;-69
2023/02/25 13:12:00;;;;;;;;;;;19.40;55.90;;;;;;5073478;28;1268;-69
2023/02/25 13:14:31;;;;;;;;;;;19.30;53.30;;;;;;5048799;28;978;-69
2023/02/25 13:16:57;;;;;;;;;;;19.20;52.20;;;;;;5081292;28;965;-69
2023/02/25 13:19:25;;;;;;;;;;;19.10;51.40;;;;;;5047311;28;843;-69
2023/02/25 13:21:58;;;;;;;;;;;19.10;53.10;;;;;;5041210;28;1845;-70
2023/02/25 13:24:30;;;;;;;;;;;19.00;54.00;;;;;;5072128;28;1991;-70
2023/02/25 13:27:15;;;;;;;;;;;19.00;54.60;;;;;;5074383;28;1711;-69
2023/02/25 13:29:57;;;;;;;;;;;19.10;55.20;;;;;;5043415;28;1142;-70
2023/02/25 13:32:26;;;;;;;;;;;19.10;55.90;;;;;;5071706;28;1326;-69
2023/02/25 13:35:03;;;;;;;;;;;19.10;56.40;;;;;;5039625;28;1455;-69
2023/02/25 13:37:36;;;;;;;;;;;19.20;56.70;;;;;;5041086;28;1468;-70
2023/02/25 13:40:20;;;;;;;;;;;19.30;57.10;;;;;;5043852;28;848;-69
2023/02/25 13:43:04;;;;;;;;;;;19.40;57.50;;;;;;5039458;28;1910;-69
2023/02/25 13:45:45;;;;;;;;;;;19.50;57.90;;;;;;5040941;28;1325;-68
2023/02/25 13:48:29;;;;;;;;;;;19.60;58.20;;;;;;5070397;28;930;-68
2023/02/25 13:51:21;;;;;;;;;;;19.70;58.30;;;;;;5040241;28;1317;-68
2023/02/25 13:54:06;;;;;;;;;;;19.80;58.40;;;;;;5033942;28;1414;-68
2023/02/25 13:56:34;;;;;;;;;;;19.90;58.40;;;;;;5038786;28;866;-69
2023/02/25 13:59:17;;;;;;;;;;;20.00;58.50;;;;;;5043012;28;832;-68
2023/02/25 14:02:00;;;;;;;;;;;20.10;58.50;;;;;;5073761;28;1262;-68
2023/02/25 14:04:29;;;;;;;;;;;20.20;58.60;;;;;;5039727;28;1882;-68
2023/02/25 14:06:54;;;;;;;;;;;20.30;58.60;;;;;;5042282;28;882;-70
2023/02/25 14:09:29;;;;;;;;;;;20.30;58.50;;;;;;5073109;28;1287;-69
2023/02/25 14:11:57;;;;;;;;;;;20.40;58.60;;;;;;5040466;28;1279;-69
2023/02/25 14:14:22;;;;;;;;;;;20.40;58.60;;;;;;5060844;28;1254;-69
2023/02/25 14:17:06;;;;;;;;;;;20.50;58.50;;;;;;5039415;28;859;-69
2023/02/25 14:19:34;;;;;;;;;;;20.60;58.60;;;;;;5037910;28;908;-69
2023/02/25 14:22:15;;;;;;;;;;;20.60;58.50;;;;;;5040466;28;1298;-69
2023/02/25 14:24:44;;;;;;;;;;;20.70;58.30;;;;;;5040352;28;1251;-69
2023/02/25 14:27:19;;;;;;;;;;;20.70;58.30;;;;;;5073401;28;1323;-68
2023/02/25 14:29:45;;;;;;;;;;;20.70;58.30;;;;;;5039505;28;816;-69
2023/02/25 14:32:29;;;;;;;;;;;20.80;58.30;;;;;;5042307;28;1275;-68
2023/02/25 14:35:01;;;;;;;;;;;20.80;58.30;;;;;;5042293;28;950;-69
2023/02/25 14:37:39;;;;;;;;;;;20.90;58.40;;;;;;5073411;28;1379;-68
2023/02/25 14:40:13;;;;;;;;;;;20.90;58.40;;;;;;5038147;28;930;-68
2023/02/25 14:42:48;;;;;;;;;;;21.00;58.40;;;;;;5039265;28;1898;-69
2023/02/25 14:45:15;;;;;;;;;;;21.00;58.40;;;;;;5039631;28;1434;-67
2023/02/25 14:47:46;;;;;;;;;;;21.10;58.50;;;;;;5072233;28;1339;-68